Terminal Aerodrome Forecast
Issued by NWS Burlington, VT

Home | Current Version | Previous Version | Text Only | Print | Product List | Glossary On
Versions: 1 2 3 4 5 6 7 8 9 10 11 12 13 14 15 16 17 18 19 20 21 22
436
FTUS41 KBTV 251731
TAFBTV
TAF
KBTV 251731Z 2518/2618 22007KT P6SM VCSH SCT050 BKN090
      TEMPO 2518/2519 4SM SHRA BR BKN035 OVC050
     FM251900 25008G15KT P6SM SCT070 SCT150
     FM260200 22005KT P6SM SCT150
     FM261200 24006KT P6SM SCT060=

USA.gov is the U.S. government's official web portal to all federal, state and local government web resources and services.